createdAt,value
2023-05-24T00:00:22.995Z,10.30
2023-05-24T00:02:27.073Z,10.20
2023-05-24T00:04:30.193Z,10.10
2023-05-24T00:06:34.891Z,10.10
2023-05-24T00:08:37.623Z,10.10
2023-05-24T00:10:40.440Z,10.00
2023-05-24T00:12:43.562Z,10.10
2023-05-24T00:14:46.432Z,10.00
2023-05-24T00:16:50.568Z,10.10
2023-05-24T00:18:54.847Z,9.60
2023-05-24T00:20:58.526Z,9.70
2023-05-24T00:23:01.551Z,9.50
2023-05-24T00:25:05.120Z,9.40
2023-05-24T00:27:08.447Z,9.50
2023-05-24T00:29:11.250Z,9.70
2023-05-24T00:31:14.074Z,9.60
2023-05-24T00:33:18.176Z,9.40
2023-05-24T00:35:20.984Z,9.40
2023-05-24T00:37:23.736Z,9.40
2023-05-24T00:39:26.493Z,9.30
2023-05-24T00:41:29.282Z,9.50
2023-05-24T00:43:32.093Z,9.60
2023-05-24T00:45:34.861Z,9.70
2023-05-24T00:47:37.936Z,9.80
2023-05-24T00:49:42.241Z,9.60
2023-05-24T00:51:45.046Z,9.90
2023-05-24T00:53:49.269Z,10.00
2023-05-24T00:55:52.044Z,10.10
2023-05-24T00:57:55.371Z,10.10
2023-05-24T00:59:58.245Z,10.10
2023-05-24T01:02:01.113Z,9.80
2023-05-24T01:04:04.286Z,9.60
2023-05-24T01:06:09.634Z,9.70
2023-05-24T01:08:23.839Z,9.70
2023-05-24T01:10:33.169Z,9.50
2023-05-24T01:12:47.111Z,9.20
2023-05-24T01:14:59.274Z,9.30
2023-05-24T01:17:20.561Z,9.30
2023-05-24T01:19:43.437Z,9.10
2023-05-24T01:22:09.233Z,9.20
2023-05-24T01:24:23.582Z,9.20
2023-05-24T01:26:38.586Z,9.30
2023-05-24T01:28:43.355Z,9.40
2023-05-24T01:30:46.886Z,9.40
2023-05-24T01:32:49.837Z,9.40
2023-05-24T01:34:52.590Z,9.50
2023-05-24T01:36:55.386Z,9.50
2023-05-24T01:38:58.157Z,9.50
2023-05-24T01:41:06.851Z,9.60
2023-05-24T01:43:16.761Z,9.50
2023-05-24T01:45:30.606Z,9.50
2023-05-24T01:47:46.215Z,9.60
2023-05-24T01:49:51.967Z,9.50
2023-05-24T01:52:00.283Z,9.10
2023-05-24T01:54:06.031Z,9.20
2023-05-24T01:56:09.680Z,9.30
2023-05-24T01:58:14.123Z,9.20
2023-05-24T02:00:19.240Z,9.20
2023-05-24T02:02:23.683Z,9.20
2023-05-24T02:04:26.799Z,8.90
2023-05-24T02:06:29.594Z,8.90
2023-05-24T02:08:32.427Z,9.10
2023-05-24T02:10:35.320Z,8.90
2023-05-24T02:12:38.171Z,8.70
2023-05-24T02:14:42.802Z,8.90
2023-05-24T02:16:47.007Z,8.70
2023-05-24T02:18:51.651Z,8.60
2023-05-24T02:20:54.399Z,8.70
2023-05-24T02:22:57.549Z,8.80
2023-05-24T02:25:00.305Z,9.00
2023-05-24T02:27:03.146Z,9.20
2023-05-24T02:29:06.171Z,9.00
2023-05-24T02:31:08.965Z,9.20
2023-05-24T02:33:12.237Z,9.10
2023-05-24T02:35:16.451Z,9.00
2023-05-24T02:37:20.642Z,8.90
2023-05-24T02:39:23.399Z,8.80
2023-05-24T02:41:26.543Z,8.90
2023-05-24T02:43:29.347Z,8.90
2023-05-24T02:45:32.322Z,8.80
2023-05-24T02:47:35.105Z,8.90
2023-05-24T02:49:37.881Z,9.00
2023-05-24T02:51:42.322Z,9.00
2023-05-24T02:53:45.361Z,8.90
2023-05-24T02:55:48.113Z,8.80
2023-05-24T02:57:51.372Z,8.70
2023-05-24T02:59:54.245Z,8.70
2023-05-24T03:01:57.005Z,8.70
2023-05-24T03:03:59.854Z,8.50
2023-05-24T03:06:02.663Z,8.50
2023-05-24T03:08:07.912Z,8.50
2023-05-24T03:10:11.550Z,8.40
2023-05-24T03:12:15.010Z,8.30
2023-05-24T03:14:17.827Z,8.30
2023-05-24T03:16:21.151Z,8.50
2023-05-24T03:18:24.033Z,8.70
2023-05-24T03:20:26.829Z,8.90
2023-05-24T03:22:29.643Z,8.90
2023-05-24T03:24:34.324Z,8.90
2023-05-24T03:26:37.513Z,9.00
2023-05-24T03:28:40.676Z,9.10
2023-05-24T03:30:43.813Z,9.00
2023-05-24T03:32:46.933Z,9.10
2023-05-24T03:34:49.926Z,9.10
2023-05-24T03:36:52.844Z,9.10
2023-05-24T03:38:58.097Z,9.10
2023-05-24T03:41:02.312Z,9.20
2023-05-24T03:43:05.110Z,9.30
2023-05-24T03:45:09.158Z,9.40
2023-05-24T03:47:12.049Z,9.30
2023-05-24T03:49:14.832Z,9.20
2023-05-24T03:51:17.750Z,9.20
2023-05-24T03:53:22.971Z,9.30
2023-05-24T03:55:26.326Z,9.30
2023-05-24T03:57:30.386Z,9.20
2023-05-24T03:59:33.152Z,9.20
2023-05-24T04:01:36.648Z,9.10
2023-05-24T04:03:40.759Z,9.10
2023-05-24T04:05:43.576Z,9.00
2023-05-24T04:07:46.464Z,9.00
2023-05-24T04:09:49.331Z,9.10
2023-05-24T04:11:52.257Z,8.90
2023-05-24T04:13:56.875Z,9.00
2023-05-24T04:15:59.619Z,8.90
2023-05-24T04:18:03.464Z,9.00
2023-05-24T04:20:07.489Z,9.10
2023-05-24T04:22:10.557Z,9.20
2023-05-24T04:24:13.352Z,9.30
2023-05-24T04:26:17.634Z,9.50
2023-05-24T04:28:22.226Z,9.40
2023-05-24T04:30:26.332Z,9.50
2023-05-24T04:32:30.402Z,9.60
2023-05-24T04:34:33.892Z,9.70
2023-05-24T04:36:36.995Z,9.70
2023-05-24T04:38:41.085Z,9.60
2023-05-24T04:40:44.160Z,9.60
2023-05-24T04:42:47.201Z,9.60
2023-05-24T04:44:49.989Z,9.70
2023-05-24T04:46:54.538Z,9.90
2023-05-24T04:48:57.491Z,10.10
2023-05-24T04:51:00.543Z,10.20
2023-05-24T04:53:03.971Z,10.20
2023-05-24T04:55:07.684Z,10.40
2023-05-24T04:57:10.507Z,10.50
2023-05-24T04:59:13.234Z,10.70
2023-05-24T05:01:16.100Z,10.70
2023-05-24T05:03:20.730Z,10.70
2023-05-24T05:05:23.652Z,11.00
2023-05-24T05:07:26.465Z,10.80
2023-05-24T05:09:29.278Z,10.50
2023-05-24T05:11:32.047Z,10.40
2023-05-24T05:13:34.867Z,10.70
2023-05-24T05:15:37.625Z,10.80
2023-05-24T05:17:40.636Z,10.80
2023-05-24T05:19:44.753Z,10.70
2023-05-24T05:21:47.559Z,10.70
2023-05-24T05:23:50.468Z,10.50
2023-05-24T05:25:53.290Z,10.20
2023-05-24T05:27:56.032Z,10.30
2023-05-24T05:29:58.826Z,10.20
2023-05-24T05:32:01.589Z,10.10
2023-05-24T05:34:04.482Z,10.20
2023-05-24T05:36:08.784Z,10.50
2023-05-24T05:38:11.542Z,10.80
2023-05-24T05:40:14.266Z,10.60
2023-05-24T05:42:17.080Z,10.80
2023-05-24T05:44:19.891Z,10.80
2023-05-24T05:46:22.720Z,11.00
2023-05-24T05:48:26.682Z,10.80
2023-05-24T05:50:29.421Z,10.80
2023-05-24T05:52:33.555Z,10.70
2023-05-24T05:54:36.304Z,10.70
2023-05-24T05:56:44.841Z,10.50
2023-05-24T05:58:47.660Z,10.70
2023-05-24T06:00:50.745Z,10.90
2023-05-24T06:02:53.634Z,11.00
2023-05-24T06:04:56.503Z,11.20
2023-05-24T06:06:59.517Z,11.40
2023-05-24T06:09:03.668Z,11.50
2023-05-24T06:11:06.470Z,11.30
2023-05-24T06:13:09.184Z,11.50
2023-05-24T06:15:12.445Z,11.60
2023-05-24T06:17:15.227Z,11.80
2023-05-24T06:19:18.300Z,11.90
2023-05-24T06:21:21.716Z,12.00
2023-05-24T06:23:24.565Z,11.70
2023-05-24T06:25:30.865Z,11.70
2023-05-24T06:27:33.611Z,11.80
2023-05-24T06:29:36.421Z,11.90
2023-05-24T06:31:39.435Z,11.80
2023-05-24T06:33:46.797Z,11.80
2023-05-24T06:35:52.245Z,11.90
2023-05-24T06:37:55.022Z,11.90
2023-05-24T06:39:57.878Z,11.70
2023-05-24T06:42:02.050Z,11.60
2023-05-24T06:44:04.873Z,11.60
2023-05-24T06:46:07.897Z,11.60
2023-05-24T06:48:10.804Z,12.00
2023-05-24T06:50:13.750Z,11.80
2023-05-24T06:52:16.641Z,11.90
2023-05-24T06:54:19.591Z,11.80
2023-05-24T06:56:23.152Z,12.00
2023-05-24T06:58:27.251Z,12.20
2023-05-24T07:00:29.995Z,12.30
2023-05-24T07:02:32.802Z,12.40
2023-05-24T07:04:35.582Z,12.50
2023-05-24T07:06:39.369Z,12.60
2023-05-24T07:08:42.351Z,12.80
2023-05-24T07:10:45.272Z,12.50
2023-05-24T07:12:48.171Z,12.60
2023-05-24T07:14:53.276Z,12.60
2023-05-24T07:16:57.600Z,12.50
2023-05-24T07:19:03.147Z,12.50
2023-05-24T07:21:07.493Z,12.40
2023-05-24T07:23:10.619Z,12.60
2023-05-24T07:25:13.475Z,12.50
2023-05-24T07:27:16.365Z,12.30
2023-05-24T07:29:19.144Z,12.50
2023-05-24T07:31:23.254Z,12.50
2023-05-24T07:33:26.105Z,12.70
2023-05-24T07:35:30.049Z,12.90
2023-05-24T07:37:32.801Z,13.30
2023-05-24T07:39:35.586Z,13.30
2023-05-24T07:41:38.407Z,13.30
2023-05-24T07:43:41.143Z,13.70
2023-05-24T07:45:44.431Z,14.00
2023-05-24T07:47:48.665Z,14.20
2023-05-24T07:49:51.428Z,13.80
2023-05-24T07:51:56.871Z,13.70
2023-05-24T07:53:59.609Z,14.00
2023-05-24T07:56:02.332Z,14.40
2023-05-24T07:58:05.116Z,14.50
2023-05-24T08:00:10.619Z,14.50
2023-05-24T08:02:13.794Z,14.20
2023-05-24T08:04:17.857Z,14.00
2023-05-24T08:06:20.837Z,14.50
2023-05-24T08:08:24.353Z,14.80
2023-05-24T08:10:27.542Z,14.20
2023-05-24T08:12:31.296Z,14.30
2023-05-24T08:14:34.476Z,14.00
2023-05-24T08:16:37.227Z,13.80
2023-05-24T08:18:40.095Z,14.00
2023-05-24T08:20:44.282Z,13.90
2023-05-24T08:22:48.344Z,13.60
2023-05-24T08:24:51.578Z,13.50
2023-05-24T08:26:54.397Z,13.40
2023-05-24T08:28:57.217Z,13.50
2023-05-24T08:30:59.967Z,13.10
2023-05-24T08:33:02.928Z,13.20
2023-05-24T08:35:18.639Z,13.40
2023-05-24T08:37:25.042Z,13.30
2023-05-24T08:39:27.804Z,13.00
2023-05-24T08:41:32.798Z,13.10
2023-05-24T08:43:36.326Z,13.30
2023-05-24T08:45:41.085Z,13.70
2023-05-24T08:47:44.415Z,14.10
2023-05-24T08:49:48.488Z,14.30
2023-05-24T08:51:52.922Z,14.40
2023-05-24T08:53:58.644Z,14.00
2023-05-24T08:56:01.931Z,14.50
2023-05-24T08:58:05.831Z,14.30
2023-05-24T09:00:11.610Z,14.90
2023-05-24T09:02:16.425Z,15.30
2023-05-24T09:04:20.333Z,15.40
2023-05-24T09:06:25.355Z,16.20
2023-05-24T09:08:28.542Z,16.10
2023-05-24T09:10:44.934Z,16.60
2023-05-24T09:12:52.595Z,16.30
2023-05-24T09:14:55.940Z,16.20
2023-05-24T09:16:59.616Z,16.50
2023-05-24T09:19:03.432Z,16.00
2023-05-24T09:21:08.034Z,15.90
2023-05-24T09:23:12.025Z,15.60
2023-05-24T09:25:16.053Z,15.00
2023-05-24T09:27:21.681Z,15.00
2023-05-24T09:29:24.699Z,15.10
2023-05-24T09:31:34.499Z,14.90
2023-05-24T09:33:37.598Z,15.40
2023-05-24T09:35:43.505Z,15.10
2023-05-24T09:37:48.333Z,15.10
2023-05-24T09:39:51.815Z,15.00
2023-05-24T09:41:58.791Z,15.20
2023-05-24T09:44:03.313Z,15.50
2023-05-24T09:46:06.398Z,16.00
2023-05-24T09:48:12.687Z,16.00
2023-05-24T09:50:17.423Z,15.70
2023-05-24T09:52:20.645Z,15.80
2023-05-24T09:54:25.722Z,16.20
2023-05-24T09:56:29.047Z,17.20
2023-05-24T09:58:33.135Z,18.10
2023-05-24T10:00:42.510Z,18.50
2023-05-24T10:02:53.394Z,18.10
2023-05-24T10:05:01.570Z,17.40
2023-05-24T10:07:05.773Z,16.90
2023-05-24T10:09:09.864Z,16.10
2023-05-24T10:11:12.775Z,15.80
2023-05-24T10:13:17.760Z,15.70
2023-05-24T10:15:20.711Z,15.60
2023-05-24T10:17:28.052Z,15.60
2023-05-24T10:19:30.944Z,15.30
2023-05-24T10:21:37.675Z,15.30
2023-05-24T10:23:44.862Z,15.90
2023-05-24T10:25:53.787Z,16.00
2023-05-24T10:27:59.449Z,15.80
2023-05-24T10:30:11.388Z,16.10
2023-05-24T10:32:18.176Z,16.10
2023-05-24T10:34:22.900Z,16.40
2023-05-24T10:36:26.123Z,16.70
2023-05-24T10:38:30.856Z,17.50
2023-05-24T10:40:33.845Z,18.40
2023-05-24T10:42:36.813Z,19.10
2023-05-24T10:44:39.660Z,19.80
2023-05-24T10:47:10.804Z,20.20
2023-05-24T10:49:15.140Z,19.90
2023-05-24T10:51:38.623Z,19.00
2023-05-24T10:53:42.108Z,18.60
2023-05-24T10:55:56.100Z,18.20
2023-05-24T10:57:58.856Z,18.00
2023-05-24T11:02:36.625Z,17.10
2023-05-24T11:04:43.082Z,17.40
2023-05-24T11:06:55.645Z,17.80
2023-05-24T11:09:01.708Z,17.60
2023-05-24T11:11:23.284Z,17.90
2023-05-24T11:13:31.094Z,18.10
2023-05-24T11:15:33.950Z,18.50
2023-05-24T11:18:16.981Z,18.50
2023-05-24T11:20:21.074Z,18.50
2023-05-24T11:22:26.725Z,18.50
2023-05-24T11:24:30.196Z,18.60
2023-05-24T11:26:33.389Z,18.50
2023-05-24T11:28:38.337Z,18.80
2023-05-24T11:30:41.889Z,18.90
2023-05-24T11:32:49.662Z,18.60
2023-05-24T11:34:52.494Z,18.40
2023-05-24T11:36:55.559Z,17.60
2023-05-24T11:39:01.329Z,17.50
2023-05-24T11:41:04.136Z,17.90
2023-05-24T11:43:07.614Z,18.10
2023-05-24T11:45:11.247Z,18.50
2023-05-24T11:47:14.407Z,18.50
2023-05-24T11:49:18.307Z,18.10
2023-05-24T11:51:27.254Z,18.90
2023-05-24T11:53:30.031Z,19.40
2023-05-24T11:55:34.142Z,19.60
2023-05-24T11:57:40.037Z,19.90
2023-05-24T11:59:43.147Z,20.00
2023-05-24T12:01:45.963Z,19.80
2023-05-24T12:03:49.259Z,19.90
2023-05-24T12:05:52.818Z,20.00
2023-05-24T12:08:04.769Z,19.70
2023-05-24T12:10:09.628Z,19.80
2023-05-24T12:12:13.855Z,20.00
2023-05-24T12:14:18.312Z,19.30
2023-05-24T12:16:21.226Z,18.80
2023-05-24T12:18:26.016Z,18.70
2023-05-24T12:20:29.198Z,18.80
2023-05-24T12:22:32.062Z,18.50
2023-05-24T12:24:35.239Z,18.20
2023-05-24T12:26:38.957Z,18.10
2023-05-24T12:28:44.056Z,18.60
2023-05-24T12:30:47.325Z,19.30
2023-05-24T12:32:50.543Z,19.40
2023-05-24T12:34:54.785Z,19.80
2023-05-24T12:36:57.932Z,19.70
2023-05-24T12:39:00.697Z,19.60
2023-05-24T12:41:13.105Z,19.20
2023-05-24T12:43:17.374Z,19.60
2023-05-24T12:45:25.737Z,19.20
2023-05-24T12:47:28.623Z,19.30
2023-05-24T12:49:32.543Z,19.30
2023-05-24T12:51:36.591Z,19.40
2023-05-24T12:53:39.324Z,19.70
2023-05-24T12:55:42.328Z,19.60
2023-05-24T12:57:52.864Z,19.70
2023-05-24T12:59:55.617Z,19.50
2023-05-24T13:02:00.375Z,19.50
2023-05-24T13:04:03.152Z,19.30
2023-05-24T13:06:06.763Z,19.40
2023-05-24T13:08:11.111Z,19.40
2023-05-24T13:10:14.515Z,19.10
2023-05-24T13:12:17.601Z,19.30
2023-05-24T13:14:20.817Z,19.30
2023-05-24T13:16:24.256Z,19.60
2023-05-24T13:18:28.423Z,19.70
2023-05-24T13:20:31.246Z,19.40
2023-05-24T13:22:35.585Z,19.20
2023-05-24T13:24:38.340Z,19.30
2023-05-24T13:26:41.535Z,19.00
2023-05-24T13:29:07.721Z,19.20
2023-05-24T13:31:07.789Z,19.30
2023-05-24T13:33:10.702Z,19.30
2023-05-24T13:35:14.866Z,19.70
2023-05-24T13:37:17.738Z,20.20
2023-05-24T13:39:21.561Z,19.40
2023-05-24T13:41:25.076Z,19.10
2023-05-24T13:43:27.872Z,19.30
2023-05-24T13:45:33.064Z,19.10
2023-05-24T13:47:40.117Z,18.90
2023-05-24T13:49:43.634Z,18.70
2023-05-24T13:51:47.999Z,18.90
2023-05-24T13:53:51.015Z,19.10
2023-05-24T13:55:53.886Z,19.20
2023-05-24T13:57:57.294Z,18.90
2023-05-24T14:00:00.751Z,18.30
2023-05-24T14:02:03.611Z,18.20
2023-05-24T14:04:07.896Z,18.30
2023-05-24T14:06:10.886Z,18.60
2023-05-24T14:08:15.030Z,18.40
2023-05-24T14:10:20.820Z,19.00
2023-05-24T14:12:24.179Z,19.40
2023-05-24T14:16:32.688Z,20.60
2023-05-24T14:18:35.942Z,21.00
2023-05-24T14:20:40.400Z,20.90
2023-05-24T14:22:43.602Z,21.20
2023-05-24T14:24:48.039Z,21.40
2023-05-24T14:26:50.779Z,20.40
2023-05-24T14:28:56.232Z,20.20
2023-05-24T14:30:59.982Z,20.10
2023-05-24T14:33:02.769Z,19.50
2023-05-24T14:35:06.708Z,19.70
2023-05-24T14:37:09.509Z,19.60
2023-05-24T14:39:12.551Z,19.40
2023-05-24T14:41:16.649Z,18.90
2023-05-24T14:43:19.382Z,18.80
2023-05-24T14:45:22.261Z,18.10
2023-05-24T14:47:25.061Z,18.70
2023-05-24T14:49:27.837Z,18.90
2023-05-24T14:51:30.687Z,19.30
2023-05-24T14:53:33.473Z,19.20
2023-05-24T14:55:36.481Z,19.40
2023-05-24T14:57:41.871Z,19.60
2023-05-24T14:59:44.727Z,19.40
2023-05-24T15:01:47.584Z,18.70
2023-05-24T15:03:50.481Z,17.90
2023-05-24T15:05:53.318Z,17.80
2023-05-24T15:07:56.060Z,18.60
2023-05-24T15:09:58.839Z,18.50
2023-05-24T15:12:02.014Z,18.40
2023-05-24T15:14:06.201Z,18.70
2023-05-24T15:16:09.198Z,19.40
2023-05-24T15:18:12.087Z,20.00
2023-05-24T15:20:15.040Z,20.40
2023-05-24T15:22:17.829Z,21.00
2023-05-24T15:24:20.600Z,24.10
2023-05-24T15:26:23.493Z,23.90
2023-05-24T15:28:26.823Z,25.40
2023-05-24T15:30:31.601Z,28.40
2023-05-24T15:32:34.350Z,30.10
2023-05-24T15:34:37.161Z,31.80
2023-05-24T15:36:41.119Z,32.90
2023-05-24T15:38:43.932Z,32.70
2023-05-24T15:40:47.072Z,32.60
2023-05-24T15:42:50.106Z,30.30
2023-05-24T15:44:52.989Z,29.30
2023-05-24T15:46:57.296Z,29.00
2023-05-24T15:49:00.140Z,28.40
2023-05-24T15:53:08.601Z,24.90
2023-05-24T15:55:11.454Z,24.50
2023-05-24T15:57:14.284Z,23.90
2023-05-24T15:59:18.130Z,23.60
2023-05-24T16:01:22.487Z,22.20
2023-05-24T16:03:26.768Z,22.10
2023-05-24T16:05:29.666Z,22.10
2023-05-24T16:07:32.838Z,22.60
2023-05-24T16:09:35.663Z,25.60
2023-05-24T16:11:38.403Z,28.70
2023-05-24T16:13:41.323Z,30.60
2023-05-24T16:15:50.898Z,32.10
2023-05-24T16:17:53.711Z,30.50
2023-05-24T16:19:59.145Z,28.10
2023-05-24T16:22:02.025Z,26.30
2023-05-24T16:24:05.330Z,27.50
2023-05-24T16:26:08.129Z,29.50
2023-05-24T16:28:10.910Z,31.10
2023-05-24T16:30:14.177Z,31.50
2023-05-24T16:32:17.031Z,30.10
2023-05-24T16:34:19.906Z,31.60
2023-05-24T16:36:24.713Z,33.20
2023-05-24T16:38:27.499Z,33.90
2023-05-24T16:40:30.654Z,35.50
2023-05-24T16:42:33.436Z,36.90
2023-05-24T16:44:36.210Z,36.50
2023-05-24T16:46:39.054Z,34.70
2023-05-24T16:48:41.946Z,31.40
2023-05-24T16:50:44.889Z,28.70
2023-05-24T16:52:49.084Z,27.20
2023-05-24T16:54:52.042Z,26.10
2023-05-24T16:56:54.985Z,24.50
2023-05-24T16:58:57.846Z,24.20
2023-05-24T17:01:00.769Z,22.90
2023-05-24T17:03:04.123Z,23.40
2023-05-24T17:05:07.864Z,22.80
2023-05-24T17:07:10.680Z,22.70
2023-05-24T17:09:14.770Z,22.00
2023-05-24T17:11:19.748Z,21.80
2023-05-24T17:13:22.676Z,21.70
2023-05-24T17:15:25.502Z,21.70
2023-05-24T17:17:28.309Z,21.40
2023-05-24T17:19:31.761Z,21.30
2023-05-24T17:21:34.561Z,21.50
2023-05-24T17:23:37.821Z,21.30
2023-05-24T17:25:41.923Z,20.60
2023-05-24T17:27:44.807Z,20.20
2023-05-24T17:29:47.815Z,21.10
2023-05-24T17:31:50.978Z,22.10
2023-05-24T17:33:53.833Z,21.80
2023-05-24T17:35:57.594Z,21.70
2023-05-24T17:38:00.576Z,21.40
2023-05-24T17:40:03.488Z,20.70
2023-05-24T17:42:07.883Z,20.10
2023-05-24T17:44:10.642Z,19.60
2023-05-24T17:46:14.230Z,19.50
2023-05-24T17:48:17.472Z,20.10
2023-05-24T17:50:20.293Z,20.30
2023-05-24T17:52:23.019Z,20.60
2023-05-24T17:54:26.018Z,20.20
2023-05-24T17:56:30.388Z,19.80
2023-05-24T17:58:37.333Z,19.50
2023-05-24T18:00:40.823Z,19.40
2023-05-24T18:02:43.725Z,19.40
2023-05-24T18:04:46.539Z,19.40
2023-05-24T18:06:49.380Z,19.20
2023-05-24T18:08:52.119Z,19.00
2023-05-24T18:10:54.963Z,18.90
2023-05-24T18:12:57.709Z,18.60
2023-05-24T18:15:01.903Z,18.60
2023-05-24T18:17:05.034Z,18.40
2023-05-24T18:19:07.845Z,18.30
2023-05-24T18:21:10.808Z,18.10
2023-05-24T18:23:13.561Z,18.10
2023-05-24T18:25:16.672Z,17.90
2023-05-24T18:27:19.562Z,18.00
2023-05-24T18:29:22.351Z,18.20
2023-05-24T18:31:26.459Z,17.80
2023-05-24T18:33:29.204Z,17.80
2023-05-24T18:35:32.145Z,18.00
2023-05-24T18:37:35.035Z,17.80
2023-05-24T18:39:37.807Z,17.70
2023-05-24T18:41:40.640Z,17.90
2023-05-24T18:43:43.716Z,17.60
2023-05-24T18:45:46.618Z,17.70
2023-05-24T18:47:50.777Z,17.80
2023-05-24T18:49:53.701Z,17.80
2023-05-24T18:51:56.527Z,17.80
2023-05-24T18:53:59.307Z,17.80
2023-05-24T18:56:02.096Z,17.50
2023-05-24T18:58:06.602Z,17.40
2023-05-24T19:00:10.506Z,16.90
2023-05-24T19:02:13.446Z,16.70
2023-05-24T19:04:17.578Z,16.90
2023-05-24T19:06:20.432Z,16.90
2023-05-24T19:08:23.248Z,16.90
2023-05-24T19:10:26.071Z,16.90
2023-05-24T19:12:28.918Z,16.80
2023-05-24T19:14:32.402Z,16.70
2023-05-24T19:16:35.257Z,16.50
2023-05-24T19:18:38.199Z,16.50
2023-05-24T19:20:43.127Z,16.40
2023-05-24T19:22:46.036Z,16.40
2023-05-24T19:24:48.851Z,16.40
2023-05-24T19:26:51.792Z,16.10
2023-05-24T19:28:54.703Z,15.90
2023-05-24T19:31:01.089Z,15.80
2023-05-24T19:33:04.168Z,15.70
2023-05-24T19:35:08.393Z,15.40
2023-05-24T19:37:12.560Z,15.40
2023-05-24T19:39:15.392Z,15.30
2023-05-24T19:41:18.265Z,15.00
2023-05-24T19:43:21.047Z,15.00
2023-05-24T19:45:23.926Z,15.10
2023-05-24T19:47:26.723Z,15.10
2023-05-24T19:49:29.556Z,15.10
2023-05-24T19:51:32.361Z,15.00
2023-05-24T19:53:36.431Z,15.00
2023-05-24T19:55:39.299Z,14.80
2023-05-24T19:57:42.090Z,14.80
2023-05-24T19:59:44.875Z,14.80
2023-05-24T20:01:47.784Z,14.70
2023-05-24T20:03:50.635Z,14.60
2023-05-24T20:05:53.459Z,14.50
2023-05-24T20:07:56.201Z,14.30
2023-05-24T20:10:00.833Z,14.40
2023-05-24T20:12:04.523Z,14.00
2023-05-24T20:14:07.298Z,13.90
2023-05-24T20:16:10.234Z,14.00
2023-05-24T20:18:13.061Z,14.00
2023-05-24T20:20:16.091Z,13.90
2023-05-24T20:22:19.017Z,13.80
2023-05-24T20:24:21.808Z,13.60
2023-05-24T20:26:25.970Z,13.50
2023-05-24T20:28:31.222Z,13.70
2023-05-24T20:30:35.476Z,13.60
2023-05-24T20:32:38.325Z,13.50
2023-05-24T20:34:41.165Z,13.60
2023-05-24T20:36:44.131Z,13.60
2023-05-24T20:38:47.612Z,13.70
2023-05-24T20:40:50.522Z,13.80
2023-05-24T20:42:55.363Z,13.80
2023-05-24T20:44:58.134Z,13.90
2023-05-24T20:47:01.060Z,14.00
2023-05-24T20:49:03.877Z,14.00
2023-05-24T20:51:08.097Z,14.00
2023-05-24T20:53:10.959Z,14.00
2023-05-24T20:55:16.205Z,14.00
2023-05-24T20:57:19.044Z,14.00
2023-05-24T20:59:23.158Z,14.00
2023-05-24T21:01:26.682Z,13.90
2023-05-24T21:03:30.032Z,13.90
2023-05-24T21:05:36.253Z,13.80
2023-05-24T21:07:39.019Z,13.80
2023-05-24T21:09:41.824Z,13.80
2023-05-24T21:11:44.756Z,13.70
2023-05-24T21:13:47.580Z,13.70
2023-05-24T21:15:51.691Z,13.70
2023-05-24T21:17:54.509Z,13.60
2023-05-24T21:19:57.328Z,13.50
2023-05-24T21:22:00.189Z,13.40
2023-05-24T21:24:03.492Z,13.30
2023-05-24T21:26:06.448Z,13.30
2023-05-24T21:28:10.286Z,13.30
2023-05-24T21:30:14.395Z,13.40
2023-05-24T21:32:18.551Z,13.40
2023-05-24T21:34:21.295Z,13.30
2023-05-24T21:36:24.128Z,13.20
2023-05-24T21:38:26.885Z,13.20
2023-05-24T21:40:29.605Z,13.10
2023-05-24T21:42:32.395Z,13.20
2023-05-24T21:44:35.252Z,13.10
2023-05-24T21:46:38.089Z,13.20
2023-05-24T21:48:42.241Z,13.20
2023-05-24T21:50:45.341Z,13.30
2023-05-24T21:52:48.073Z,13.30
2023-05-24T21:54:50.852Z,13.30
2023-05-24T21:56:53.614Z,13.20
2023-05-24T21:58:56.438Z,13.10
2023-05-24T22:00:59.204Z,13.10
2023-05-24T22:03:02.045Z,13.10
2023-05-24T22:05:06.720Z,13.10
2023-05-24T22:07:09.525Z,13.20
2023-05-24T22:09:13.567Z,12.80
2023-05-24T22:11:16.406Z,12.70
2023-05-24T22:13:19.298Z,12.60
2023-05-24T22:15:22.070Z,12.60
2023-05-24T22:17:25.683Z,12.60
2023-05-24T22:19:40.094Z,12.50
2023-05-24T22:21:45.812Z,12.40
2023-05-24T22:23:48.720Z,12.40
2023-05-24T22:25:51.496Z,12.50
2023-05-24T22:27:55.672Z,12.60
2023-05-24T22:29:58.496Z,12.60
2023-05-24T22:32:01.285Z,12.70
2023-05-24T22:34:04.233Z,12.70
2023-05-24T22:36:07.131Z,12.70
2023-05-24T22:38:11.415Z,12.80
2023-05-24T22:40:14.692Z,12.80
2023-05-24T22:42:17.539Z,12.80
2023-05-24T22:44:20.846Z,12.80
2023-05-24T22:46:24.117Z,12.70
2023-05-24T22:48:27.430Z,12.60
2023-05-24T22:50:30.183Z,12.50
2023-05-24T22:52:33.891Z,12.50
2023-05-24T22:54:38.017Z,12.40
2023-05-24T22:56:41.159Z,12.40
2023-05-24T22:58:43.872Z,12.50
2023-05-24T23:00:46.665Z,12.50
2023-05-24T23:02:49.533Z,12.50
2023-05-24T23:04:53.775Z,12.50
2023-05-24T23:06:56.698Z,12.50
2023-05-24T23:08:59.523Z,12.40
2023-05-24T23:11:10.185Z,12.40
2023-05-24T23:13:14.304Z,12.40
2023-05-24T23:15:18.289Z,12.40
2023-05-24T23:17:23.688Z,12.40
2023-05-24T23:19:26.525Z,12.40
2023-05-24T23:21:29.398Z,12.40
2023-05-24T23:23:32.227Z,12.40
2023-05-24T23:25:35.144Z,12.40
2023-05-24T23:27:40.458Z,12.40
2023-05-24T23:29:43.220Z,12.30
2023-05-24T23:31:46.147Z,12.30
2023-05-24T23:33:49.007Z,12.30
2023-05-24T23:35:51.757Z,12.20
2023-05-24T23:37:54.577Z,12.20
2023-05-24T23:40:02.187Z,12.20
2023-05-24T23:42:06.697Z,12.20
2023-05-24T23:44:10.896Z,12.20
2023-05-24T23:46:16.966Z,12.20
2023-05-24T23:48:21.163Z,12.10
2023-05-24T23:50:23.976Z,11.70
2023-05-24T23:52:27.083Z,11.50
2023-05-24T23:54:29.856Z,11.50
2023-05-24T23:56:34.598Z,11.60
2023-05-24T23:58:37.585Z,11.60
